createdAt,value
2023-03-05T00:01:32.943Z,40.20
2023-03-05T00:04:03.087Z,45.50
2023-03-05T00:06:33.018Z,50.00
2023-03-05T00:09:01.532Z,50.50
2023-03-05T00:11:31.913Z,46.80
2023-03-05T00:14:01.986Z,46.20
2023-03-05T00:16:30.912Z,48.70
2023-03-05T00:21:40.116Z,43.90
2023-03-05T00:24:14.336Z,44.10
2023-03-05T00:26:43.254Z,40.80
2023-03-05T00:29:15.526Z,38.20
2023-03-05T00:31:46.521Z,42.90
2023-03-05T00:34:16.711Z,47.30
2023-03-05T00:36:48.188Z,42.20
2023-03-05T00:39:17.636Z,52.60
2023-03-05T00:41:46.990Z,58.50
2023-03-05T00:46:43.189Z,58.40
2023-03-05T00:49:11.414Z,50.60
2023-03-05T00:51:41.218Z,59.30
2023-03-05T00:54:10.119Z,60.90
2023-03-05T00:56:38.282Z,57.80
2023-03-05T00:59:08.916Z,55.60
2023-03-05T01:01:37.034Z,62.30
2023-03-05T01:04:05.359Z,55.80
2023-03-05T01:06:33.624Z,59.90
2023-03-05T01:09:02.514Z,55.20
2023-03-05T01:11:32.155Z,59.20
2023-03-05T01:14:00.489Z,54.50
2023-03-05T01:16:28.859Z,57.60
2023-03-05T01:18:57.063Z,52.20
2023-03-05T01:21:25.348Z,51.20
2023-03-05T01:23:54.012Z,54.20
2023-03-05T01:26:22.185Z,53.80
2023-03-05T01:28:50.177Z,55.60
2023-03-05T01:31:18.325Z,55.20
2023-03-05T01:33:47.221Z,51.30
2023-03-05T01:36:17.061Z,52.70
2023-03-05T01:38:47.750Z,55.90
2023-03-05T01:41:16.432Z,51.40
2023-03-05T01:43:46.166Z,48.80
2023-03-05T01:46:25.476Z,41.20
2023-03-05T01:49:01.397Z,44.70
2023-03-05T01:51:35.433Z,41.70
2023-03-05T01:54:06.479Z,44.70
2023-03-05T01:56:35.263Z,40.50
2023-03-05T01:59:04.423Z,41.70
2023-03-05T02:01:38.918Z,36.20
2023-03-05T02:04:10.400Z,32.60
2023-03-05T02:06:41.311Z,37.00
2023-03-05T02:09:10.317Z,34.10
2023-03-05T02:11:39.565Z,35.70
2023-03-05T02:14:10.189Z,34.50
2023-03-05T02:16:39.239Z,38.90
2023-03-05T02:19:10.526Z,35.90
2023-03-05T02:21:45.346Z,34.10
2023-03-05T02:24:20.047Z,36.00
2023-03-05T02:26:48.147Z,35.10
2023-03-05T02:29:20.191Z,34.20
2023-03-05T02:31:48.979Z,37.70
2023-03-05T02:34:17.168Z,37.90
2023-03-05T02:36:45.343Z,33.30
2023-03-05T02:39:13.752Z,36.10
2023-03-05T02:41:42.091Z,37.40
2023-03-05T02:44:10.536Z,32.30
2023-03-05T02:46:38.751Z,32.60
2023-03-05T02:49:06.951Z,32.80
2023-03-05T02:51:35.157Z,34.40
2023-03-05T02:54:03.894Z,35.30
2023-03-05T02:56:32.529Z,37.60
2023-03-05T02:59:02.054Z,36.60
2023-03-05T03:01:30.404Z,36.10
2023-03-05T03:03:59.554Z,34.20
2023-03-05T03:06:27.635Z,33.60
2023-03-05T03:08:55.696Z,32.20
2023-03-05T03:11:24.228Z,35.60
2023-03-05T03:13:52.340Z,32.80
2023-03-05T03:16:20.767Z,34.50
2023-03-05T03:18:49.135Z,31.70
2023-03-05T03:21:20.309Z,32.10
2023-03-05T03:23:48.459Z,33.00
2023-03-05T03:26:17.500Z,34.00
2023-03-05T03:28:46.203Z,34.70
2023-03-05T03:31:14.595Z,35.90
2023-03-05T03:33:42.843Z,37.70
2023-03-05T03:36:11.781Z,31.60
2023-03-05T03:38:40.063Z,30.90
2023-03-05T03:41:09.542Z,30.30
2023-03-05T03:43:37.885Z,33.50
2023-03-05T03:46:07.998Z,31.80
2023-03-05T03:48:36.793Z,34.40
2023-03-05T03:51:07.568Z,40.00
2023-03-05T03:53:35.694Z,37.10
2023-03-05T03:56:04.334Z,35.00
2023-03-05T03:58:32.769Z,36.80
2023-03-05T04:01:01.232Z,33.40
2023-03-05T04:03:29.396Z,31.50
2023-03-05T04:05:57.430Z,29.50
2023-03-05T04:08:25.548Z,35.60
2023-03-05T04:10:53.770Z,30.70
2023-03-05T04:13:21.785Z,34.40
2023-03-05T04:15:50.506Z,31.40
2023-03-05T04:18:18.787Z,34.00
2023-03-05T04:20:47.061Z,34.80
2023-03-05T04:23:15.607Z,35.00
2023-03-05T04:25:44.052Z,38.20
2023-03-05T04:28:12.555Z,30.70
2023-03-05T04:30:40.671Z,35.50
2023-03-05T04:33:09.013Z,36.30
2023-03-05T04:35:37.246Z,35.10
2023-03-05T04:38:05.573Z,35.30
2023-03-05T04:40:34.861Z,36.20
2023-03-05T04:45:32.298Z,36.00
2023-03-05T04:48:00.618Z,34.90
2023-03-05T04:50:28.662Z,36.00
2023-03-05T04:52:57.880Z,36.60
2023-03-05T04:55:26.792Z,31.20
2023-03-05T04:57:54.934Z,31.00
2023-03-05T05:00:23.422Z,28.10
2023-03-05T05:02:52.305Z,29.60
2023-03-05T05:05:23.241Z,30.10
2023-03-05T05:07:55.321Z,29.60
2023-03-05T05:10:25.248Z,30.30
2023-03-05T05:12:53.686Z,29.00
2023-03-05T05:15:22.079Z,28.00
2023-03-05T05:17:50.574Z,31.40
2023-03-05T05:20:18.828Z,30.10
2023-03-05T05:22:47.308Z,29.90
2023-03-05T05:25:15.482Z,33.70
2023-03-05T05:27:43.705Z,32.50
2023-03-05T05:30:12.445Z,33.10
2023-03-05T05:32:40.659Z,39.70
2023-03-05T05:35:10.671Z,36.50
2023-03-05T05:37:38.922Z,51.90
2023-03-05T05:40:08.526Z,41.60
2023-03-05T05:42:37.200Z,35.40
2023-03-05T05:45:06.163Z,30.80
2023-03-05T05:47:34.481Z,35.80
2023-03-05T05:50:03.872Z,31.90
2023-03-05T05:52:31.938Z,30.20
2023-03-05T05:55:00.129Z,30.60
2023-03-05T05:57:28.188Z,30.60
2023-03-05T05:59:56.782Z,34.20
2023-03-05T06:02:25.047Z,32.10
2023-03-05T06:04:53.385Z,33.20
2023-03-05T06:07:21.467Z,29.90
2023-03-05T06:09:49.590Z,31.00
2023-03-05T06:12:17.727Z,32.30
2023-03-05T06:14:45.811Z,29.80
2023-03-05T06:17:21.923Z,28.70
2023-03-05T06:19:55.490Z,30.10
2023-03-05T06:22:23.633Z,28.20
2023-03-05T06:24:51.704Z,28.30
2023-03-05T06:27:19.875Z,28.40
2023-03-05T06:29:47.935Z,28.70
2023-03-05T06:32:16.585Z,28.60
2023-03-05T06:34:44.905Z,27.80
2023-03-05T06:37:13.146Z,26.90
2023-03-05T06:39:41.451Z,27.10
2023-03-05T06:42:10.275Z,32.20
2023-03-05T06:44:40.470Z,29.50
2023-03-05T06:47:10.630Z,31.40
2023-03-05T06:49:39.172Z,30.10
2023-03-05T06:52:10.167Z,29.50
2023-03-05T06:54:38.475Z,28.30
2023-03-05T06:57:06.547Z,27.50
2023-03-05T06:59:34.626Z,27.30
2023-03-05T07:02:02.852Z,31.20
2023-03-05T07:04:30.960Z,28.70
2023-03-05T07:07:00.678Z,31.00
2023-03-05T07:09:29.049Z,28.10
2023-03-05T07:11:57.243Z,27.00
2023-03-05T07:14:25.233Z,25.60
2023-03-05T07:16:53.270Z,27.10
2023-03-05T07:19:21.352Z,25.50
2023-03-05T07:21:49.399Z,25.50
2023-03-05T07:24:17.398Z,24.50
2023-03-05T07:26:46.923Z,25.50
2023-03-05T07:29:16.504Z,22.60
2023-03-05T07:31:44.648Z,24.10
2023-03-05T07:34:12.923Z,23.00
2023-03-05T07:36:42.400Z,25.00
2023-03-05T07:39:12.016Z,23.00
2023-03-05T07:41:40.033Z,20.10
2023-03-05T07:44:08.075Z,24.60
2023-03-05T07:46:36.594Z,20.60
2023-03-05T07:49:04.996Z,21.40
2023-03-05T07:51:33.420Z,24.00
2023-03-05T07:54:02.258Z,21.40
2023-03-05T07:56:35.803Z,20.60
2023-03-05T07:59:07.326Z,20.00
2023-03-05T08:01:36.297Z,18.70
2023-03-05T08:04:06.058Z,18.80
2023-03-05T08:06:34.179Z,18.90
2023-03-05T08:09:02.309Z,18.30
2023-03-05T08:11:30.468Z,19.40
2023-03-05T08:13:59.743Z,17.10
2023-03-05T08:16:28.143Z,18.20
2023-03-05T08:18:58.189Z,16.60
2023-03-05T08:21:33.878Z,15.50
2023-03-05T08:24:04.371Z,15.60
2023-03-05T08:26:34.650Z,15.60
2023-03-05T08:29:03.552Z,14.90
2023-03-05T08:31:32.895Z,14.40
2023-03-05T08:34:02.360Z,14.30
2023-03-05T08:36:30.940Z,14.00
2023-03-05T08:38:59.960Z,13.80
2023-03-05T08:41:28.472Z,12.60
2023-03-05T08:43:56.716Z,12.10
2023-03-05T08:46:25.509Z,10.00
2023-03-05T08:48:53.741Z,10.90
2023-03-05T08:51:27.780Z,10.50
2023-03-05T08:53:58.213Z,11.00
2023-03-05T08:56:28.516Z,9.70
2023-03-05T08:58:56.907Z,9.60
2023-03-05T09:01:25.305Z,9.70
2023-03-05T09:03:53.957Z,10.70
2023-03-05T09:06:22.221Z,9.60
2023-03-05T09:08:50.397Z,10.00
2023-03-05T09:11:18.490Z,11.80
2023-03-05T09:13:46.663Z,9.20
2023-03-05T09:16:17.238Z,10.20
2023-03-05T09:18:45.904Z,7.90
2023-03-05T09:21:16.581Z,10.90
2023-03-05T09:23:45.290Z,9.70
2023-03-05T09:26:16.518Z,9.30
2023-03-05T09:28:45.472Z,9.60
2023-03-05T09:31:14.154Z,10.20
2023-03-05T09:36:25.593Z,10.10
2023-03-05T09:38:54.513Z,8.90
2023-03-05T09:44:36.042Z,10.30
2023-03-05T09:47:23.037Z,9.10
2023-03-05T09:50:04.176Z,8.90
2023-03-05T09:52:43.408Z,9.90
2023-03-05T09:55:17.832Z,8.50
2023-03-05T09:57:51.721Z,9.90
2023-03-05T10:00:45.369Z,9.00
2023-03-05T10:03:26.066Z,9.80
2023-03-05T10:06:12.890Z,10.50
2023-03-05T10:09:02.414Z,9.20
2023-03-05T10:11:33.346Z,10.20
2023-03-05T10:14:02.560Z,9.50
2023-03-05T10:19:29.458Z,8.70
2023-03-05T10:22:04.615Z,9.30
2023-03-05T10:24:44.127Z,9.90
2023-03-05T10:27:29.807Z,9.90
2023-03-05T10:30:07.521Z,10.80
2023-03-05T10:32:35.895Z,11.30
2023-03-05T10:35:18.232Z,10.10
2023-03-05T10:37:52.675Z,8.90
2023-03-05T10:40:23.871Z,8.60
2023-03-05T10:43:21.875Z,9.30
2023-03-05T10:45:56.363Z,10.20
2023-03-05T10:48:45.011Z,9.10
2023-03-05T10:51:52.057Z,9.30
2023-03-05T10:54:33.990Z,8.90
2023-03-05T10:57:20.994Z,10.30
2023-03-05T10:59:52.441Z,10.70
2023-03-05T11:02:23.225Z,8.40
2023-03-05T11:04:53.553Z,9.70
2023-03-05T11:07:22.901Z,9.00
2023-03-05T11:10:06.026Z,8.70
2023-03-05T11:12:38.550Z,10.00
2023-03-05T11:15:09.330Z,10.30
2023-03-05T11:17:43.444Z,10.30
2023-03-05T11:20:35.691Z,8.50
2023-03-05T11:23:24.235Z,9.20
2023-03-05T11:26:13.932Z,8.10
2023-03-05T11:28:57.781Z,8.30
2023-03-05T11:31:32.007Z,9.40
2023-03-05T11:34:03.518Z,10.10
2023-03-05T11:36:40.152Z,8.90
2023-03-05T11:39:08.168Z,9.10
2023-03-05T11:41:36.119Z,9.80
2023-03-05T11:44:13.084Z,9.80
2023-03-05T11:46:46.398Z,9.30
2023-03-05T11:49:20.937Z,10.10
2023-03-05T11:52:12.996Z,8.50
2023-03-05T11:55:03.258Z,9.30
2023-03-05T11:57:42.341Z,8.30
2023-03-05T12:00:17.838Z,8.70
2023-03-05T12:02:52.424Z,9.70
2023-03-05T12:05:21.413Z,8.60
2023-03-05T12:07:52.910Z,8.60
2023-03-05T12:10:24.648Z,10.20
2023-03-05T12:13:20.200Z,10.40
2023-03-05T12:16:07.236Z,8.40
2023-03-05T12:18:55.029Z,8.20
2023-03-05T12:21:29.285Z,9.70
2023-03-05T12:24:01.446Z,10.40
2023-03-05T12:26:59.564Z,10.40
2023-03-05T12:29:48.220Z,11.00
2023-03-05T12:32:22.329Z,9.60
2023-03-05T12:34:58.305Z,8.50
2023-03-05T12:37:26.415Z,10.00
2023-03-05T12:40:04.815Z,9.30
2023-03-05T12:42:32.835Z,8.60
2023-03-05T12:45:09.809Z,9.40
2023-03-05T12:47:40.592Z,9.80
2023-03-05T12:50:27.692Z,8.70
2023-03-05T12:53:16.062Z,9.20
2023-03-05T12:55:45.929Z,9.00
2023-03-05T12:58:42.676Z,7.60
2023-03-05T13:01:36.135Z,8.70
2023-03-05T13:04:14.598Z,9.00
2023-03-05T13:06:43.442Z,8.70
2023-03-05T13:09:27.739Z,7.10
2023-03-05T13:11:56.510Z,8.40
2023-03-05T13:14:36.589Z,8.80
2023-03-05T13:17:27.433Z,9.10
2023-03-05T13:19:56.762Z,9.20
2023-03-05T13:22:25.624Z,8.90
2023-03-05T13:25:13.567Z,8.20
2023-03-05T13:27:43.138Z,8.00
2023-03-05T13:30:29.271Z,8.90
2023-03-05T13:33:04.931Z,9.60
2023-03-05T13:35:34.102Z,8.80
2023-03-05T13:38:02.386Z,9.70
2023-03-05T13:40:32.898Z,9.70
2023-03-05T13:43:15.107Z,8.40
2023-03-05T13:45:44.879Z,9.20
2023-03-05T13:48:20.212Z,9.90
2023-03-05T13:50:58.264Z,11.60
2023-03-05T13:53:31.822Z,12.20
2023-03-05T13:56:06.733Z,10.70
2023-03-05T13:58:48.222Z,11.40
2023-03-05T14:01:44.052Z,11.70
2023-03-05T14:04:15.533Z,12.80
2023-03-05T14:06:49.030Z,12.10
2023-03-05T14:09:27.841Z,13.10
2023-03-05T14:11:57.513Z,12.80
2023-03-05T14:14:27.387Z,15.60
2023-03-05T14:16:55.812Z,18.40
2023-03-05T14:19:37.046Z,14.40
2023-03-05T14:22:06.856Z,14.70
2023-03-05T14:24:35.150Z,14.80
2023-03-05T14:27:13.461Z,16.50
2023-03-05T14:29:47.527Z,15.70
2023-03-05T14:32:35.187Z,13.50
2023-03-05T14:35:06.195Z,15.10
2023-03-05T14:37:37.855Z,14.10
2023-03-05T14:40:21.243Z,13.60
2023-03-05T14:42:58.819Z,12.80
2023-03-05T14:45:37.192Z,13.90
2023-03-05T14:48:07.684Z,15.10
2023-03-05T14:50:43.374Z,14.10
2023-03-05T14:53:20.317Z,14.40
2023-03-05T14:55:53.732Z,12.70
2023-03-05T14:58:26.316Z,15.20
2023-03-05T15:00:55.844Z,15.90
2023-03-05T15:03:25.352Z,15.00
2023-03-05T15:05:56.724Z,16.40
2023-03-05T15:08:32.490Z,14.70
2023-03-05T15:11:01.345Z,15.50
2023-03-05T15:13:29.714Z,16.40
2023-03-05T15:15:58.892Z,13.50
2023-03-05T15:18:27.300Z,15.40
2023-03-05T15:20:57.243Z,15.80
2023-03-05T15:23:25.261Z,14.60
2023-03-05T15:25:53.281Z,13.40
2023-03-05T15:28:21.411Z,17.70
2023-03-05T15:30:49.541Z,16.70
2023-03-05T15:33:18.373Z,14.60
2023-03-05T15:35:46.453Z,16.40
2023-03-05T15:38:16.183Z,16.90
2023-03-05T15:40:45.200Z,16.70
2023-03-05T15:43:13.954Z,15.30
2023-03-05T15:45:42.235Z,15.80
2023-03-05T15:48:10.762Z,14.40
2023-03-05T15:50:43.817Z,15.00
2023-03-05T15:53:16.268Z,14.90
2023-03-05T15:55:46.081Z,12.90
2023-03-05T15:58:16.816Z,13.40
2023-03-05T16:00:46.084Z,14.70
2023-03-05T16:03:14.788Z,11.60
2023-03-05T16:05:43.307Z,14.30
2023-03-05T16:08:11.523Z,12.00
2023-03-05T16:10:41.067Z,13.70
2023-03-05T16:13:17.391Z,12.40
2023-03-05T16:15:47.629Z,13.30
2023-03-05T16:18:16.919Z,12.30
2023-03-05T16:20:45.492Z,11.20
2023-03-05T16:23:14.077Z,11.90
2023-03-05T16:25:42.254Z,9.90
2023-03-05T16:28:11.037Z,10.20
2023-03-05T16:30:40.044Z,10.30
2023-03-05T16:33:08.140Z,10.80
2023-03-05T16:35:36.239Z,11.00
2023-03-05T16:38:04.658Z,12.90
2023-03-05T16:41:05.573Z,11.60
2023-03-05T16:43:26.291Z,11.80
2023-03-05T16:45:54.727Z,11.50
2023-03-05T16:48:22.951Z,11.80
2023-03-05T16:50:51.158Z,10.40
2023-03-05T16:53:20.348Z,11.00
2023-03-05T16:58:16.519Z,12.10
2023-03-05T17:00:45.482Z,11.90
2023-03-05T17:03:13.735Z,10.40
2023-03-05T17:05:42.138Z,12.50
2023-03-05T17:08:10.388Z,10.00
2023-03-05T17:10:38.548Z,11.50
2023-03-05T17:13:06.818Z,11.90
2023-03-05T17:15:35.715Z,10.30
2023-03-05T17:18:05.753Z,9.50
2023-03-05T17:20:35.664Z,10.20
2023-03-05T17:23:04.139Z,9.70
2023-03-05T17:25:32.292Z,10.50
2023-03-05T17:28:00.450Z,10.30
2023-03-05T17:30:31.520Z,10.10
2023-03-05T17:32:59.833Z,9.10
2023-03-05T17:35:29.588Z,9.80
2023-03-05T17:37:58.349Z,9.40
2023-03-05T17:40:26.499Z,10.40
2023-03-05T17:42:54.720Z,10.40
2023-03-05T17:45:22.952Z,9.40
2023-03-05T17:47:51.689Z,10.30
2023-03-05T17:50:20.106Z,10.10
2023-03-05T17:52:48.199Z,10.30
2023-03-05T17:55:17.945Z,9.20
2023-03-05T17:57:47.703Z,8.70
2023-03-05T18:00:25.020Z,9.00
2023-03-05T18:02:54.384Z,9.40
2023-03-05T18:05:24.153Z,10.30
2023-03-05T18:07:53.648Z,8.60
2023-03-05T18:10:23.873Z,10.80
2023-03-05T18:12:53.312Z,9.90
2023-03-05T18:15:24.116Z,8.20
2023-03-05T18:17:52.895Z,8.00
2023-03-05T18:20:36.540Z,8.10
2023-03-05T18:23:06.242Z,7.10
2023-03-05T18:25:35.037Z,7.70
2023-03-05T18:28:09.174Z,6.80
2023-03-05T18:30:38.967Z,6.80
2023-03-05T18:33:09.434Z,7.10
2023-03-05T18:35:37.664Z,6.90
2023-03-05T18:38:05.953Z,7.00
2023-03-05T18:40:36.054Z,6.30
2023-03-05T18:43:04.524Z,6.10
2023-03-05T18:45:34.380Z,6.30
2023-03-05T18:48:02.537Z,7.40
2023-03-05T18:50:31.135Z,7.10
2023-03-05T18:52:59.357Z,6.40
2023-03-05T18:55:29.921Z,7.30
2023-03-05T18:57:58.293Z,6.80
2023-03-05T19:00:30.074Z,6.80
2023-03-05T19:02:58.925Z,6.10
2023-03-05T19:05:28.182Z,7.90
2023-03-05T19:07:56.623Z,6.50
2023-03-05T19:10:25.590Z,7.60
2023-03-05T19:13:35.949Z,7.00
2023-03-05T19:16:24.852Z,6.80
2023-03-05T19:19:22.683Z,8.60
2023-03-05T19:21:59.814Z,6.20
2023-03-05T19:24:30.352Z,6.20
2023-03-05T19:27:01.655Z,6.50
2023-03-05T19:29:32.970Z,6.40
2023-03-05T19:32:01.751Z,6.70
2023-03-05T19:34:30.135Z,7.80
2023-03-05T19:36:58.301Z,8.40
2023-03-05T19:39:26.570Z,9.60
2023-03-05T19:41:54.660Z,8.30
2023-03-05T19:44:23.320Z,7.00
2023-03-05T19:46:51.413Z,8.40
2023-03-05T19:49:22.555Z,8.20
2023-03-05T19:51:54.176Z,9.60
2023-03-05T19:54:23.642Z,8.50
2023-03-05T19:56:54.951Z,8.10
2023-03-05T19:59:24.471Z,8.10
2023-03-05T20:04:23.774Z,9.00
2023-03-05T20:06:51.858Z,8.20
2023-03-05T20:09:20.117Z,7.30
2023-03-05T20:11:48.292Z,7.90
2023-03-05T20:14:16.578Z,7.40
2023-03-05T20:16:44.762Z,7.60
2023-03-05T20:19:18.497Z,9.90
2023-03-05T20:21:46.592Z,8.60
2023-03-05T20:24:16.383Z,8.40
2023-03-05T20:26:45.829Z,7.50
2023-03-05T20:29:17.747Z,8.10
2023-03-05T20:31:48.124Z,8.10
2023-03-05T20:36:46.732Z,9.00
2023-03-05T20:39:15.502Z,8.20
2023-03-05T20:41:44.311Z,9.80
2023-03-05T20:44:13.723Z,7.80
2023-03-05T20:47:40.688Z,8.70
2023-03-05T20:50:10.392Z,8.70
2023-03-05T20:52:39.109Z,8.60
2023-03-05T20:55:08.415Z,8.20
2023-03-05T21:00:05.896Z,7.20
2023-03-05T21:02:34.286Z,8.10
2023-03-05T21:05:02.457Z,7.60
2023-03-05T21:07:31.146Z,7.80
2023-03-05T21:09:59.534Z,8.30
2023-03-05T21:12:27.594Z,9.40
2023-03-05T21:14:55.769Z,6.80
2023-03-05T21:17:23.924Z,8.00
2023-03-05T21:19:53.582Z,8.50
2023-03-05T21:22:21.847Z,9.10
2023-03-05T21:25:23.129Z,8.70
2023-03-05T21:27:56.089Z,9.40
2023-03-05T21:30:31.419Z,9.00
2023-03-05T21:33:04.996Z,8.10
2023-03-05T21:35:34.146Z,9.40
2023-03-05T21:38:03.626Z,9.20
2023-03-05T21:40:33.051Z,9.10
2023-03-05T21:45:30.720Z,9.30
2023-03-05T21:47:59.898Z,9.40
2023-03-05T21:52:56.315Z,9.40
2023-03-05T21:56:10.465Z,9.50
2023-03-05T21:58:49.174Z,11.50
2023-03-05T22:01:19.518Z,12.20
2023-03-05T22:03:48.929Z,17.70
2023-03-05T22:08:47.227Z,24.80
2023-03-05T22:11:18.743Z,18.40
2023-03-05T22:13:47.220Z,17.40
2023-03-05T22:16:26.694Z,19.60
2023-03-05T22:18:54.943Z,16.20
2023-03-05T22:21:27.061Z,16.00
2023-03-05T22:23:59.160Z,18.20
2023-03-05T22:26:37.356Z,17.40
2023-03-05T22:29:06.314Z,18.00
2023-03-05T22:31:34.832Z,17.20
2023-03-05T22:34:03.263Z,16.00
2023-03-05T22:36:31.681Z,16.40
2023-03-05T22:38:59.754Z,15.30
2023-03-05T22:41:27.822Z,14.60
2023-03-05T22:43:55.958Z,14.50
2023-03-05T22:46:26.288Z,17.60
2023-03-05T22:48:54.455Z,15.50
2023-03-05T22:51:22.693Z,15.60
2023-03-05T22:53:51.069Z,14.90
2023-03-05T22:56:20.689Z,15.20
2023-03-05T22:58:48.830Z,15.80
2023-03-05T23:01:20.054Z,16.30
2023-03-05T23:04:38.952Z,16.10
2023-03-05T23:07:08.981Z,15.90
2023-03-05T23:09:37.271Z,12.60
2023-03-05T23:12:06.029Z,15.40
2023-03-05T23:14:34.101Z,15.90
2023-03-05T23:17:02.457Z,13.60
2023-03-05T23:19:30.787Z,13.80
2023-03-05T23:21:58.857Z,15.10
2023-03-05T23:24:26.994Z,16.20
2023-03-05T23:26:55.228Z,14.80
2023-03-05T23:29:59.002Z,16.50
2023-03-05T23:32:29.558Z,14.50
2023-03-05T23:34:57.626Z,12.70
2023-03-05T23:37:26.029Z,11.80
2023-03-05T23:39:54.334Z,12.90
2023-03-05T23:42:22.502Z,14.60
2023-03-05T23:44:50.637Z,15.00
2023-03-05T23:47:18.843Z,15.20
2023-03-05T23:49:47.000Z,16.20
2023-03-05T23:52:15.488Z,14.10
2023-03-05T23:54:43.614Z,13.40
2023-03-05T23:57:11.840Z,13.40
2023-03-05T23:59:39.888Z,10.60
